Time;durP1;ratioP1;P1;durP2;ratioP2;P2;SDS_P1;SDS_P2;PMS_P1;PMS_P2;Temp;Humidity;BMP_temperature;BMP_pressure;BME280_temperature;BME280_humidity;BME280_pressure;Samples;Min_cycle;Max_cycle;Signal;HPM_P1;HPM_P2
2023/07/18 00:02:03;;;;;;;3.53;3.23;;;16.90;61.30;;;;;;6250956;28;20327;-80
2023/07/18 00:05:07;;;;;;;3.27;3.10;;;16.80;61.60;;;;;;6251745;28;20253;-81
2023/07/18 00:08:10;;;;;;;2.83;2.63;;;16.70;61.90;;;;;;6242561;28;20895;-81
2023/07/18 00:11:15;;;;;;;3.60;3.30;;;16.70;62.10;;;;;;6248169;28;20326;-82
2023/07/18 00:14:18;;;;;;;4.73;3.33;;;16.60;62.10;;;;;;6248921;28;20233;-80
2023/07/18 00:17:21;;;;;;;4.03;3.00;;;16.60;62.40;;;;;;6234742;28;20256;-81
2023/07/18 00:20:25;;;;;;;3.83;3.17;;;16.60;62.50;;;;;;6243062;28;20237;-80
2023/07/18 00:23:30;;;;;;;3.20;3.00;;;16.50;62.80;;;;;;6249616;28;20238;-82
2023/07/18 00:26:35;;;;;;;3.57;3.27;;;16.40;63.20;;;;;;6232640;28;20274;-82
2023/07/18 00:29:38;;;;;;;3.70;3.40;;;16.40;63.60;;;;;;6252500;28;20443;-80
2023/07/18 00:32:44;;;;;;;4.63;3.20;;;16.40;63.70;;;;;;6223473;28;20799;-81
2023/07/18 00:35:47;;;;;;;3.43;3.23;;;16.30;63.70;;;;;;6238580;28;20231;-80
2023/07/18 00:38:50;;;;;;;3.43;3.10;;;16.30;64.30;;;;;;6244200;28;20250;-82
2023/07/18 00:41:54;;;;;;;3.03;2.83;;;16.20;64.40;;;;;;6246005;28;20234;-82
2023/07/18 00:44:58;;;;;;;3.80;3.50;;;16.20;64.70;;;;;;6254641;28;20743;-82
2023/07/18 00:48:01;;;;;;;3.57;3.30;;;16.20;64.90;;;;;;6226489;28;20239;-79
2023/07/18 00:51:07;;;;;;;3.90;3.60;;;16.10;65.30;;;;;;6260867;28;20233;-81
2023/07/18 00:54:10;;;;;;;3.90;3.33;;;16.00;65.40;;;;;;6247213;28;20862;-84
2023/07/18 00:57:15;;;;;;;3.93;3.60;;;16.00;65.90;;;;;;6231516;28;20307;-79
2023/07/18 01:00:22;;;;;;;5.53;3.60;;;16.00;65.80;;;;;;6257530;28;20404;-83
2023/07/18 01:03:26;;;;;;;3.90;3.60;;;15.90;66.40;;;;;;6251874;28;20238;-79
2023/07/18 01:06:29;;;;;;;4.57;3.67;;;15.90;66.50;;;;;;6247042;28;20231;-81
2023/07/18 01:09:32;;;;;;;3.90;3.60;;;15.90;66.50;;;;;;6231277;28;20325;-80
2023/07/18 01:12:37;;;;;;;4.13;3.83;;;15.80;66.50;;;;;;6230825;28;20238;-80
2023/07/18 01:15:40;;;;;;;3.67;3.57;;;15.80;66.40;;;;;;6247843;28;20238;-81
2023/07/18 01:18:43;;;;;;;3.60;3.40;;;15.80;66.50;;;;;;6239149;28;20325;-81
2023/07/18 01:21:48;;;;;;;3.47;3.17;;;15.80;66.60;;;;;;6222801;28;20258;-80
2023/07/18 01:24:53;;;;;;;3.80;3.50;;;15.80;66.70;;;;;;6253755;28;20730;-81
2023/07/18 01:27:59;;;;;;;3.60;3.40;;;15.70;66.70;;;;;;6255976;28;20227;-80
2023/07/18 01:31:05;;;;;;;6.03;3.50;;;15.60;67.00;;;;;;6243636;28;20825;-81
2023/07/18 01:34:08;;;;;;;3.43;3.17;;;15.60;67.30;;;;;;6243794;28;20318;-80
2023/07/18 01:37:15;;;;;;;3.67;3.37;;;15.60;67.40;;;;;;6255737;28;20317;-81
2023/07/18 01:40:20;;;;;;;3.27;3.17;;;15.60;67.50;;;;;;6254445;28;20230;-79
2023/07/18 01:43:24;;;;;;;4.17;3.43;;;15.50;67.70;;;;;;6240912;28;20242;-82
2023/07/18 01:46:27;;;;;;;3.77;3.67;;;15.50;67.60;;;;;;6245883;28;20312;-79
2023/07/18 01:49:35;;;;;;;4.03;3.83;;;15.50;67.70;;;;;;6262146;28;20276;-81
2023/07/18 01:52:39;;;;;;;3.30;3.20;;;15.50;68.10;;;;;;6247305;28;20238;-79
2023/07/18 01:55:42;;;;;;;4.00;3.80;;;15.50;68.10;;;;;;6249352;28;20266;-82
2023/07/18 01:58:46;;;;;;;3.90;3.60;;;15.50;68.00;;;;;;6246081;28;20222;-81
2023/07/18 02:01:51;;;;;;;4.63;3.83;;;15.40;68.30;;;;;;6226050;28;20250;-80
2023/07/18 02:04:55;;;;;;;3.57;3.37;;;15.50;68.30;;;;;;6269653;28;20241;-82
2023/07/18 02:08:01;;;;;;;4.00;3.80;;;15.40;68.60;;;;;;6263549;28;20268;-81
2023/07/18 02:11:04;;;;;;;3.63;3.43;;;15.30;68.70;;;;;;6260217;28;20234;-80
2023/07/18 02:14:07;;;;;;;3.60;3.40;;;15.30;68.70;;;;;;6270927;28;20316;-84
2023/07/18 02:17:10;;;;;;;3.47;3.37;;;15.20;69.00;;;;;;6262852;28;20229;-79
2023/07/18 02:20:14;;;;;;;4.20;3.90;;;15.20;69.10;;;;;;6250589;28;20623;-79
2023/07/18 02:23:19;;;;;;;3.83;3.63;;;15.20;69.20;;;;;;6262038;28;20596;-80
2023/07/18 02:26:22;;;;;;;3.87;3.57;;;15.10;69.40;;;;;;6259087;28;20321;-79
2023/07/18 02:29:25;;;;;;;4.10;3.90;;;15.00;69.60;;;;;;6252900;28;20243;-79
2023/07/18 02:32:28;;;;;;;3.83;3.63;;;15.00;69.90;;;;;;6259617;28;20345;-81
2023/07/18 02:35:32;;;;;;;3.87;3.67;;;15.00;69.90;;;;;;6270646;28;20268;-80
2023/07/18 02:38:36;;;;;;;4.00;3.70;;;15.00;69.90;;;;;;6243045;28;20253;-81
2023/07/18 02:41:39;;;;;;;4.03;3.70;;;15.00;70.20;;;;;;6248317;28;20624;-81
2023/07/18 02:44:42;;;;;;;3.80;3.60;;;14.90;70.50;;;;;;6263138;28;20323;-83
2023/07/18 02:47:45;;;;;;;3.90;3.60;;;14.90;70.60;;;;;;6255766;28;20249;-84
2023/07/18 02:50:49;;;;;;;4.47;4.07;;;14.90;70.50;;;;;;6271668;28;20268;-80
2023/07/18 02:53:55;;;;;;;4.57;4.33;;;14.80;70.80;;;;;;6268380;28;20248;-83
2023/07/18 02:56:59;;;;;;;3.90;3.70;;;14.80;70.90;;;;;;6257822;28;20226;-80
2023/07/18 03:00:06;;;;;;;4.30;4.10;;;14.70;71.20;;;;;;6280404;28;20290;-82
2023/07/18 03:03:09;;;;;;;4.80;4.40;;;14.70;71.50;;;;;;6270632;28;20363;-79
2023/07/18 03:06:15;;;;;;;4.60;4.20;;;14.60;71.70;;;;;;6269838;28;20233;-81
2023/07/18 03:09:19;;;;;;;4.13;3.90;;;14.60;71.90;;;;;;6267044;28;20244;-80
2023/07/18 03:12:22;;;;;;;5.43;4.30;;;14.50;72.10;;;;;;6260315;28;20321;-80
2023/07/18 03:15:26;;;;;;;4.13;3.93;;;14.50;72.30;;;;;;6246431;28;20237;-79
2023/07/18 03:18:29;;;;;;;4.30;4.03;;;14.50;72.30;;;;;;6249680;28;20222;-82
2023/07/18 03:21:32;;;;;;;4.50;4.10;;;14.50;72.50;;;;;;6233212;28;20231;-80
2023/07/18 03:24:38;;;;;;;5.40;4.90;;;14.50;72.40;;;;;;6234048;28;20235;-78
2023/07/18 03:27:41;;;;;;;5.13;4.63;;;14.40;72.60;;;;;;6257776;28;20245;-83
2023/07/18 03:30:44;;;;;;;4.60;4.30;;;14.40;72.80;;;;;;6256930;28;20326;-84
2023/07/18 03:33:50;;;;;;;4.80;4.40;;;14.40;72.80;;;;;;6229880;28;20309;-80
2023/07/18 03:36:53;;;;;;;4.93;4.50;;;14.40;72.70;;;;;;6249274;28;20630;-82
2023/07/18 03:39:57;;;;;;;5.00;4.60;;;14.40;73.00;;;;;;6233285;28;20243;-81
2023/07/18 03:43:01;;;;;;;5.23;4.83;;;14.40;73.00;;;;;;6227682;28;20412;-83
2023/07/18 03:46:04;;;;;;;6.13;4.87;;;14.40;73.00;;;;;;6256017;28;20280;-77
2023/07/18 03:49:07;;;;;;;5.13;4.60;;;14.40;73.00;;;;;;6233925;28;20234;-82
2023/07/18 03:52:10;;;;;;;4.67;4.37;;;14.40;73.30;;;;;;6244539;28;20646;-81
2023/07/18 03:55:15;;;;;;;5.17;4.67;;;14.30;73.20;;;;;;6229123;28;20272;-81
2023/07/18 03:58:18;;;;;;;5.40;5.10;;;14.30;73.20;;;;;;6250542;28;20702;-80
2023/07/18 04:01:21;;;;;;;5.70;5.40;;;14.30;73.30;;;;;;6234021;28;20605;-81
2023/07/18 04:04:27;;;;;;;6.03;5.37;;;14.40;73.30;;;;;;6243468;28;20273;-80
2023/07/18 04:07:31;;;;;;;5.47;4.97;;;14.30;73.50;;;;;;6231188;28;20224;-81
2023/07/18 04:10:36;;;;;;;5.10;4.80;;;14.30;73.40;;;;;;6228469;28;20273;-79
2023/07/18 04:13:39;;;;;;;5.53;4.97;;;14.40;73.30;;;;;;6225688;28;20240;-78
2023/07/18 04:16:42;;;;;;;5.97;5.37;;;14.40;73.20;;;;;;6234871;28;20243;-80
2023/07/18 04:19:46;;;;;;;4.97;4.77;;;14.40;73.20;;;;;;6241878;28;20238;-80
2023/07/18 04:22:49;;;;;;;5.40;4.90;;;14.50;73.00;;;;;;6244332;28;20609;-80
2023/07/18 04:25:58;;;;;;;6.33;5.70;;;14.50;73.20;;;;;;6242702;28;20246;-81
2023/07/18 04:29:04;;;;;;;5.83;5.00;;;14.50;73.20;;;;;;6239868;28;20234;-81
2023/07/18 04:32:07;;;;;;;5.10;4.80;;;14.50;73.10;;;;;;6213347;28;20793;-83
2023/07/18 04:35:11;;;;;;;5.87;5.33;;;14.50;73.10;;;;;;6232530;28;20241;-81
2023/07/18 04:38:14;;;;;;;6.73;5.23;;;14.50;73.10;;;;;;6237058;28;20847;-80
2023/07/18 04:41:19;;;;;;;5.27;4.97;;;14.60;72.90;;;;;;6231729;28;20230;-80
2023/07/18 04:44:23;;;;;;;5.77;5.30;;;14.60;72.60;;;;;;6246755;28;20226;-82
2023/07/18 04:47:26;;;;;;;5.73;5.17;;;14.70;72.40;;;;;;6241183;28;20235;-80
2023/07/18 04:50:30;;;;;;;5.43;5.03;;;14.70;72.50;;;;;;6247052;28;20233;-83
2023/07/18 04:53:34;;;;;;;6.03;4.63;;;14.70;72.20;;;;;;6236555;28;20306;-82
2023/07/18 04:56:39;;;;;;;4.53;4.23;;;14.80;72.00;;;;;;6250231;28;20238;-80
2023/07/18 04:59:43;;;;;;;5.70;4.97;;;15.00;71.60;;;;;;6244419;28;20371;-81
2023/07/18 05:02:46;;;;;;;4.40;4.20;;;15.00;71.30;;;;;;6247156;28;20245;-80
2023/07/18 05:05:49;;;;;;;4.77;4.33;;;15.00;71.40;;;;;;6225022;28;20628;-81
2023/07/18 05:08:53;;;;;;;4.80;4.50;;;15.20;71.00;;;;;;6243654;28;20316;-80
2023/07/18 05:11:58;;;;;;;5.03;4.47;;;15.50;70.50;;;;;;6238228;28;20321;-79
2023/07/18 05:15:03;;;;;;;4.87;4.53;;;15.70;69.50;;;;;;6230836;28;20722;-83
2023/07/18 05:18:06;;;;;;;4.80;4.50;;;15.80;69.00;;;;;;6249641;28;20244;-80
2023/07/18 05:21:11;;;;;;;4.43;4.13;;;16.00;68.90;;;;;;6243782;28;20254;-81
2023/07/18 05:24:15;;;;;;;11.27;4.30;;;16.40;68.00;;;;;;6251385;28;20238;-82
2023/07/18 05:27:19;;;;;;;5.33;4.30;;;16.60;66.70;;;;;;6234028;28;20699;-82
2023/07/18 05:30:23;;;;;;;4.37;4.10;;;16.80;66.90;;;;;;6241138;28;20509;-80
2023/07/18 05:33:26;;;;;;;4.07;3.97;;;16.90;66.40;;;;;;6251968;28;20273;-78
2023/07/18 05:36:29;;;;;;;5.40;4.00;;;17.20;65.80;;;;;;6236805;28;20968;-80
2023/07/18 05:39:32;;;;;;;4.47;4.17;;;17.30;65.60;;;;;;6248823;28;20269;-80
2023/07/18 05:42:37;;;;;;;4.30;3.97;;;17.60;65.10;;;;;;6239586;28;20261;-79
2023/07/18 05:45:40;;;;;;;4.83;4.40;;;18.00;64.20;;;;;;6232655;28;20590;-80
2023/07/18 05:48:43;;;;;;;4.67;4.17;;;18.00;63.10;;;;;;6233441;28;20234;-80
2023/07/18 05:51:46;;;;;;;5.57;4.13;;;17.80;64.10;;;;;;6235676;28;20721;-79
2023/07/18 05:54:50;;;;;;;5.27;3.93;;;17.60;64.60;;;;;;6232240;28;20389;-82
2023/07/18 05:57:54;;;;;;;4.47;4.00;;;17.60;64.80;;;;;;6232402;28;20241;-80
2023/07/18 06:00:58;;;;;;;4.87;4.57;;;18.00;64.00;;;;;;6230350;28;20234;-80
2023/07/18 06:04:01;;;;;;;4.23;3.93;;;18.20;63.70;;;;;;6245716;28;20242;-81
2023/07/18 06:07:08;;;;;;;4.40;4.00;;;18.60;62.80;;;;;;6236786;28;20242;-77
2023/07/18 06:10:12;;;;;;;5.83;3.97;;;18.80;62.70;;;;;;6226059;28;20243;-81
2023/07/18 06:13:17;;;;;;;3.90;3.50;;;19.10;61.30;;;;;;6234508;28;20234;-80
2023/07/18 06:16:22;;;;;;;5.97;4.10;;;19.10;61.50;;;;;;6237507;28;20258;-81
2023/07/18 06:19:25;;;;;;;4.07;3.77;;;19.50;60.90;;;;;;6231289;28;20235;-79
2023/07/18 06:22:29;;;;;;;4.30;3.90;;;19.80;59.90;;;;;;6247612;28;20245;-79
2023/07/18 06:25:32;;;;;;;6.03;3.67;;;19.30;60.80;;;;;;6241012;28;20234;-80
2023/07/18 06:28:36;;;;;;;6.70;3.80;;;19.00;61.10;;;;;;6240428;28;20229;-81
2023/07/18 06:31:40;;;;;;;4.40;4.10;;;19.10;61.80;;;;;;6243749;28;20233;-80
2023/07/18 06:34:44;;;;;;;5.47;4.10;;;19.20;60.60;;;;;;6246534;28;20230;-78
2023/07/18 06:37:47;;;;;;;3.80;3.50;;;19.10;61.40;;;;;;6221891;28;20238;-80
2023/07/18 06:40:51;;;;;;;4.70;3.70;;;19.50;60.00;;;;;;6233348;28;20242;-82
2023/07/18 06:43:56;;;;;;;3.70;3.50;;;20.00;59.20;;;;;;6235969;28;20819;-80
2023/07/18 06:46:59;;;;;;;4.20;3.80;;;20.30;58.80;;;;;;6236531;28;20401;-82
2023/07/18 06:50:04;;;;;;;4.17;3.30;;;20.50;58.50;;;;;;6244929;28;20235;-80
2023/07/18 06:53:07;;;;;;;5.03;3.47;;;20.80;57.70;;;;;;6253598;28;20249;-80
2023/07/18 06:56:10;;;;;;;3.37;3.17;;;21.20;56.50;;;;;;6248970;28;20950;-81
2023/07/18 06:59:15;;;;;;;4.00;3.70;;;21.50;56.50;;;;;;6240495;28;20265;-80
2023/07/18 07:02:18;;;;;;;5.03;3.70;;;21.40;56.50;;;;;;6234868;28;20267;-81
2023/07/18 07:05:22;;;;;;;4.60;3.47;;;21.50;56.50;;;;;;6247215;28;20349;-78
2023/07/18 07:08:25;;;;;;;4.87;3.57;;;21.40;56.20;;;;;;6234340;28;20264;-81
2023/07/18 07:11:28;;;;;;;4.97;3.90;;;21.20;56.60;;;;;;6234974;28;20246;-79
2023/07/18 07:14:33;;;;;;;3.80;3.50;;;20.90;57.20;;;;;;6246842;28;20656;-78
2023/07/18 07:17:36;;;;;;;6.67;3.90;;;21.10;56.90;;;;;;6238581;28;20669;-80
2023/07/18 07:20:39;;;;;;;3.60;3.30;;;20.80;57.20;;;;;;6239679;28;20237;-85
2023/07/18 07:23:42;;;;;;;3.97;3.77;;;20.70;57.30;;;;;;6240925;28;20230;-80
2023/07/18 07:26:45;;;;;;;4.07;3.77;;;20.40;57.90;;;;;;6245669;28;20237;-80
2023/07/18 07:29:51;;;;;;;4.43;3.70;;;20.00;57.50;;;;;;6248803;28;20279;-80
2023/07/18 07:32:55;;;;;;;4.20;3.60;;;20.30;57.90;;;;;;6243689;28;20242;-82
2023/07/18 07:36:00;;;;;;;4.97;3.77;;;20.40;57.80;;;;;;6241305;28;20245;-81
2023/07/18 07:39:04;;;;;;;3.97;3.77;;;20.50;57.40;;;;;;6232489;28;20749;-82
2023/07/18 07:42:07;;;;;;;3.43;3.13;;;20.70;57.40;;;;;;6233453;28;20349;-81
2023/07/18 07:45:12;;;;;;;3.83;3.63;;;20.80;56.80;;;;;;6237739;28;20843;-82
2023/07/18 07:48:17;;;;;;;3.73;3.53;;;21.00;57.20;;;;;;6235297;28;20322;-80
2023/07/18 07:51:23;;;;;;;4.00;3.80;;;21.40;56.00;;;;;;6243079;28;20249;-78
2023/07/18 07:54:26;;;;;;;4.37;4.07;;;21.30;55.00;;;;;;6228507;28;20324;-79
2023/07/18 07:57:32;;;;;;;4.10;3.77;;;20.90;55.40;;;;;;6234378;28;20784;-79
2023/07/18 08:00:37;;;;;;;3.80;3.50;;;21.00;55.90;;;;;;6239388;28;20451;-83
2023/07/18 08:03:40;;;;;;;4.33;4.00;;;21.10;56.00;;;;;;6237865;28;20227;-84
2023/07/18 08:06:43;;;;;;;5.90;3.80;;;21.20;55.50;;;;;;6243525;28;20233;-83
2023/07/18 08:09:46;;;;;;;4.50;3.70;;;21.30;55.70;;;;;;6226777;28;20233;-84
2023/07/18 08:12:49;;;;;;;5.43;3.57;;;21.20;56.10;;;;;;6231367;28;20320;-82
2023/07/18 08:15:54;;;;;;;4.73;3.50;;;21.40;55.10;;;;;;6227991;28;20276;-81
2023/07/18 08:18:57;;;;;;;3.90;3.67;;;21.60;55.50;;;;;;6236153;28;20238;-80
2023/07/18 08:22:00;;;;;;;6.60;3.80;;;21.30;54.50;;;;;;6247460;28;20296;-80
2023/07/18 08:25:04;;;;;;;4.43;3.70;;;21.20;55.30;;;;;;6267229;28;20300;-78
2023/07/18 08:28:08;;;;;;;3.83;3.30;;;21.10;55.10;;;;;;6259630;28;20230;-79
2023/07/18 08:31:12;;;;;;;3.67;3.37;;;20.90;54.60;;;;;;6257164;28;20282;-78
2023/07/18 08:34:16;;;;;;;3.90;3.70;;;20.70;55.50;;;;;;6261018;28;20761;-80
2023/07/18 08:37:19;;;;;;;4.17;3.50;;;20.90;55.90;;;;;;6262812;28;20490;-79
2023/07/18 08:40:23;;;;;;;3.73;3.43;;;21.10;54.90;;;;;;6253239;28;20234;-80
2023/07/18 08:43:27;;;;;;;6.07;3.30;;;21.10;55.40;;;;;;6268880;28;20382;-81
2023/07/18 08:46:31;;;;;;;2.87;2.70;;;21.50;54.10;;;;;;6265458;28;20250;-80
2023/07/18 08:49:35;;;;;;;5.20;3.20;;;21.50;53.50;;;;;;6265675;28;20245;-81
2023/07/18 08:52:40;;;;;;;3.20;3.10;;;21.40;54.00;;;;;;6255483;28;20356;-78
2023/07/18 08:55:44;;;;;;;3.63;3.40;;;21.40;53.70;;;;;;6253626;28;20390;-81
2023/07/18 08:58:47;;;;;;;3.13;2.87;;;21.50;53.70;;;;;;6259925;28;20368;-81
2023/07/18 09:01:53;;;;;;;4.10;3.30;;;21.90;53.80;;;;;;6259370;28;20290;-79
2023/07/18 09:04:56;;;;;;;3.00;2.90;;;22.10;52.20;;;;;;6258361;28;20337;-80
2023/07/18 09:08:00;;;;;;;3.23;2.90;;;22.10;52.30;;;;;;6259937;28;20238;-79
2023/07/18 09:11:04;;;;;;;4.17;3.70;;;21.90;52.40;;;;;;6265873;28;20249;-81
2023/07/18 09:14:08;;;;;;;4.00;3.10;;;22.00;51.40;;;;;;6253591;28;20241;-80
2023/07/18 09:17:12;;;;;;;2.93;2.70;;;22.10;53.00;;;;;;6261833;28;20249;-78
2023/07/18 09:20:18;;;;;;;3.60;3.03;;;22.20;51.20;;;;;;6262494;28;20711;-81
2023/07/18 09:23:21;;;;;;;3.33;3.03;;;22.20;51.10;;;;;;6269254;28;20315;-80
2023/07/18 09:26:24;;;;;;;3.13;2.83;;;22.20;51.80;;;;;;6264705;28;20242;-79
2023/07/18 09:29:27;;;;;;;3.30;3.07;;;22.50;50.90;;;;;;6259620;28;20940;-78
2023/07/18 09:32:33;;;;;;;3.17;2.87;;;22.70;50.30;;;;;;6268564;28;20237;-80
2023/07/18 09:35:36;;;;;;;3.83;2.90;;;22.50;50.30;;;;;;6266809;28;20246;-80
2023/07/18 09:38:39;;;;;;;3.43;2.90;;;22.70;51.00;;;;;;6269813;28;20705;-80
2023/07/18 09:41:43;;;;;;;2.80;2.57;;;22.90;50.00;;;;;;6240896;28;20253;-81
2023/07/18 09:44:49;;;;;;;3.90;2.40;;;22.90;49.40;;;;;;6262387;28;20306;-79
2023/07/18 09:47:56;;;;;;;4.30;3.00;;;22.60;49.40;;;;;;6238383;28;20867;-82
2023/07/18 09:51:00;;;;;;;3.00;2.77;;;22.50;48.80;;;;;;6247884;28;20230;-79
2023/07/18 09:54:05;;;;;;;3.30;2.77;;;22.10;50.00;;;;;;6259514;28;20243;-81
2023/07/18 09:57:09;;;;;;;4.27;3.83;;;21.90;50.90;;;;;;6260978;28;20237;-79
2023/07/18 10:00:15;;;;;;;2.50;2.37;;;21.90;50.10;;;;;;6249834;28;20306;-80
2023/07/18 10:03:20;;;;;;;2.70;2.47;;;21.90;49.40;;;;;;6257682;28;20234;-80
2023/07/18 10:06:24;;;;;;;2.73;2.50;;;22.00;49.70;;;;;;6262588;28;20263;-79
2023/07/18 10:09:28;;;;;;;2.70;2.60;;;22.10;49.70;;;;;;6241001;28;20250;-80
2023/07/18 10:12:37;;;;;;;2.83;2.30;;;21.90;50.50;;;;;;6263332;28;20307;-81
2023/07/18 10:16:13;;;;;;;2.47;2.37;;;22.20;49.90;;;;;;6257655;28;20238;-79
2023/07/18 10:19:19;;;;;;;3.73;2.47;;;22.60;48.60;;;;;;6267328;28;20238;-78
2023/07/18 10:22:30;;;;;;;3.20;2.47;;;22.00;48.70;;;;;;6250169;28;20321;-80
2023/07/18 10:25:33;;;;;;;2.70;2.60;;;22.00;49.00;;;;;;6248294;28;20231;-79
2023/07/18 10:28:44;;;;;;;2.73;2.53;;;21.80;49.20;;;;;;6248559;28;20245;-78
2023/07/18 10:31:47;;;;;;;2.20;2.20;;;21.80;49.30;;;;;;6255214;28;20742;-78
2023/07/18 10:34:54;;;;;;;2.73;2.57;;;22.00;49.60;;;;;;6269218;28;20234;-81
2023/07/18 10:38:00;;;;;;;2.50;2.30;;;22.30;48.50;;;;;;6273091;28;20240;-80
2023/07/18 10:41:03;;;;;;;2.40;2.30;;;22.70;47.80;;;;;;6238536;28;20353;-80
2023/07/18 10:44:11;;;;;;;2.23;1.97;;;23.00;47.90;;;;;;6268522;28;20229;-81
2023/07/18 10:47:19;;;;;;;2.40;2.30;;;23.20;47.80;;;;;;6271881;28;20238;-78
2023/07/18 10:50:23;;;;;;;2.57;2.37;;;23.10;47.50;;;;;;6278060;28;20320;-78
2023/07/18 10:53:29;;;;;;;2.57;2.37;;;23.20;47.80;;;;;;6279956;28;20236;-79
2023/07/18 10:56:32;;;;;;;3.03;2.37;;;23.40;48.20;;;;;;6275837;28;20233;-80
2023/07/18 10:59:36;;;;;;;2.60;2.43;;;23.60;47.40;;;;;;6256058;28;20292;-80
2023/07/18 11:02:41;;;;;;;2.30;2.30;;;23.60;46.80;;;;;;6267008;28;20847;-80
2023/07/18 11:05:49;;;;;;;3.10;2.23;;;23.60;46.60;;;;;;6256306;28;20246;-78
2023/07/18 11:08:53;;;;;;;2.53;2.33;;;23.80;46.20;;;;;;6254543;28;20255;-81
2023/07/18 11:11:58;;;;;;;2.60;2.40;;;23.50;45.90;;;;;;6232244;28;20331;-80
2023/07/18 11:15:03;;;;;;;3.13;2.30;;;23.60;46.00;;;;;;6228236;28;20233;-79
2023/07/18 11:18:08;;;;;;;4.10;2.40;;;23.80;46.80;;;;;;6232533;28;20315;-79
2023/07/18 11:21:18;;;;;;;2.30;2.30;;;23.90;46.00;;;;;;6235971;28;20884;-77
2023/07/18 11:24:24;;;;;;;2.40;2.30;;;23.70;46.10;;;;;;6231718;28;20231;-78
2023/07/18 11:27:28;;;;;;;2.60;2.30;;;23.70;46.00;;;;;;6235257;28;20744;-80
2023/07/18 11:30:32;;;;;;;2.67;2.57;;;23.60;46.20;;;;;;6225192;28;20266;-79
2023/07/18 11:33:35;;;;;;;3.23;2.87;;;23.50;46.30;;;;;;6235490;28;20256;-79
2023/07/18 11:36:42;;;;;;;3.43;2.30;;;23.30;46.50;;;;;;6236540;28;20628;-79
2023/07/18 11:39:47;;;;;;;3.03;2.93;;;23.30;46.10;;;;;;6233477;28;20358;-81
2023/07/18 11:42:52;;;;;;;2.80;2.60;;;23.20;47.10;;;;;;6243274;28;20273;-81
2023/07/18 11:45:56;;;;;;;2.80;2.60;;;23.20;47.00;;;;;;6234241;28;20445;-79
2023/07/18 11:49:00;;;;;;;4.67;2.77;;;23.20;47.90;;;;;;6245937;28;20239;-80
2023/07/18 11:52:06;;;;;;;2.70;2.50;;;23.20;47.10;;;;;;6248557;28;20327;-80
2023/07/18 11:55:09;;;;;;;3.03;2.83;;;23.20;46.90;;;;;;6239241;28;20234;-80
2023/07/18 11:58:12;;;;;;;2.30;2.10;;;23.20;46.90;;;;;;6230409;28;20234;-78
2023/07/18 12:01:15;;;;;;;2.50;2.30;;;23.30;47.00;;;;;;6249653;28;20994;-81
2023/07/18 12:04:19;;;;;;;3.57;2.70;;;23.50;46.30;;;;;;6236687;28;20274;-79
2023/07/18 12:07:23;;;;;;;2.37;2.17;;;23.40;46.00;;;;;;6247276;28;20236;-79
2023/07/18 12:10:26;;;;;;;2.60;2.47;;;23.60;46.40;;;;;;6240593;28;20377;-76
2023/07/18 12:13:30;;;;;;;3.40;2.60;;;23.60;45.90;;;;;;6255046;28;20255;-78
2023/07/18 12:16:33;;;;;;;3.30;3.00;;;23.30;46.40;;;;;;6243751;28;20239;-79
2023/07/18 12:19:36;;;;;;;2.47;2.37;;;23.10;46.80;;;;;;6247381;28;20742;-78
2023/07/18 12:22:41;;;;;;;2.43;2.33;;;23.40;47.00;;;;;;6246601;28;20388;-80
2023/07/18 12:25:44;;;;;;;2.13;2.03;;;23.80;46.40;;;;;;6258524;28;20238;-78
2023/07/18 12:28:47;;;;;;;2.60;2.53;;;23.90;45.40;;;;;;6236936;28;20300;-82
2023/07/18 12:31:51;;;;;;;2.93;2.70;;;24.00;45.70;;;;;;6240286;28;20376;-80
2023/07/18 12:34:55;;;;;;;2.60;2.40;;;24.20;45.10;;;;;;6234565;28;20648;-79
2023/07/18 12:38:01;;;;;;;2.93;2.23;;;24.20;45.50;;;;;;6227000;28;20875;-80
2023/07/18 12:41:05;;;;;;;2.50;2.40;;;24.40;44.60;;;;;;6234376;28;20243;-81
2023/07/18 12:44:09;;;;;;;2.40;2.20;;;24.40;44.00;;;;;;6249154;28;20254;-77
2023/07/18 12:47:12;;;;;;;2.70;2.50;;;24.20;44.70;;;;;;6253276;28;20277;-82
2023/07/18 12:50:15;;;;;;;2.27;2.10;;;24.30;45.90;;;;;;6245735;28;20318;-79
2023/07/18 12:53:20;;;;;;;2.60;2.50;;;24.40;45.30;;;;;;6228501;28;20789;-80
2023/07/18 12:56:23;;;;;;;2.73;2.50;;;24.40;45.00;;;;;;6239721;28;20237;-81
2023/07/18 12:59:28;;;;;;;2.43;2.33;;;24.20;44.50;;;;;;6235234;28;20222;-79
2023/07/18 13:02:32;;;;;;;2.47;2.27;;;24.10;44.70;;;;;;6241081;28;20230;-82
2023/07/18 13:05:36;;;;;;;2.77;2.57;;;24.40;45.20;;;;;;6244086;28;20355;-79
2023/07/18 13:08:41;;;;;;;3.17;2.53;;;24.80;44.30;;;;;;6232702;28;20254;-80
2023/07/18 13:11:44;;;;;;;3.57;2.57;;;24.90;44.10;;;;;;6241660;28;20824;-78
2023/07/18 13:14:47;;;;;;;2.07;2.00;;;25.00;43.50;;;;;;6260261;28;20244;-82
2023/07/18 13:17:50;;;;;;;2.33;2.20;;;24.80;44.10;;;;;;6252449;28;20987;-77
2023/07/18 13:20:53;;;;;;;2.83;2.60;;;24.80;44.60;;;;;;6254101;28;20248;-80
2023/07/18 13:23:58;;;;;;;3.27;2.37;;;25.00;44.40;;;;;;6255059;28;20243;-80
2023/07/18 13:27:01;;;;;;;2.07;2.07;;;24.80;44.80;;;;;;6229468;28;20227;-79
2023/07/18 13:30:05;;;;;;;2.37;2.27;;;24.70;44.00;;;;;;6242730;28;20304;-81
2023/07/18 13:33:09;;;;;;;2.43;2.30;;;24.40;44.10;;;;;;6264902;28;20226;-81
2023/07/18 13:36:12;;;;;;;2.60;2.00;;;24.60;44.50;;;;;;6259396;28;20244;-78
2023/07/18 13:39:17;;;;;;;2.20;1.93;;;24.90;44.00;;;;;;6252672;28;20863;-80
2023/07/18 13:42:20;;;;;;;2.60;2.00;;;24.80;43.00;;;;;;6254236;28;20277;-80
2023/07/18 13:45:23;;;;;;;2.43;2.33;;;24.90;43.80;;;;;;6264762;28;20248;-80
2023/07/18 13:48:26;;;;;;;2.43;2.33;;;24.90;43.70;;;;;;6268791;28;20233;-79
2023/07/18 13:51:32;;;;;;;2.50;2.33;;;24.90;44.00;;;;;;6264678;28;20230;-80
2023/07/18 13:54:37;;;;;;;2.67;2.47;;;25.00;43.40;;;;;;6256188;28;20254;-78
2023/07/18 13:57:40;;;;;;;3.00;2.00;;;25.30;43.20;;;;;;6259906;28;20748;-80
2023/07/18 14:00:43;;;;;;;2.50;2.40;;;25.00;43.30;;;;;;6246003;28;20230;-79
2023/07/18 14:03:47;;;;;;;2.30;2.20;;;24.80;43.30;;;;;;6264377;28;20231;-80
2023/07/18 14:06:51;;;;;;;2.70;2.50;;;24.70;43.10;;;;;;6251406;28;20749;-80
2023/07/18 14:09:57;;;;;;;2.30;2.20;;;24.70;43.40;;;;;;6253110;28;20686;-79
2023/07/18 14:13:00;;;;;;;2.17;2.07;;;24.80;44.00;;;;;;6264140;28;20265;-80
2023/07/18 14:16:04;;;;;;;2.07;2.07;;;25.00;43.60;;;;;;6251154;28;20385;-81
2023/07/18 14:19:07;;;;;;;2.23;2.13;;;25.20;43.70;;;;;;6241911;28;20321;-80
2023/07/18 14:22:12;;;;;;;2.17;1.97;;;25.30;43.80;;;;;;6220728;28;20989;-79
2023/07/18 14:25:16;;;;;;;1.87;1.80;;;25.40;43.00;;;;;;6236662;28;20304;-81
2023/07/18 14:28:20;;;;;;;1.90;1.90;;;25.50;42.80;;;;;;6241212;28;20331;-80
2023/07/18 14:31:23;;;;;;;1.90;1.90;;;25.60;42.10;;;;;;6230035;28;20772;-80
2023/07/18 14:34:26;;;;;;;2.40;2.30;;;25.20;42.70;;;;;;6233031;28;20256;-80
2023/07/18 14:37:29;;;;;;;1.80;1.73;;;25.00;42.70;;;;;;6246104;28;20267;-80
2023/07/18 14:40:34;;;;;;;2.10;2.00;;;25.00;42.70;;;;;;6229065;28;20301;-78
2023/07/18 14:43:39;;;;;;;1.83;1.83;;;24.70;42.50;;;;;;6236475;28;20234;-80
2023/07/18 14:46:42;;;;;;;2.03;1.87;;;24.80;43.10;;;;;;6234238;28;20665;-78
2023/07/18 14:49:45;;;;;;;1.93;1.83;;;25.20;42.60;;;;;;6249615;28;20234;-78
2023/07/18 14:52:48;;;;;;;2.93;2.37;;;25.60;42.80;;;;;;6227226;28;20243;-79
2023/07/18 14:55:53;;;;;;;3.37;2.17;;;25.60;42.40;;;;;;6230468;28;20319;-78
2023/07/18 14:58:56;;;;;;;1.70;1.60;;;25.60;42.50;;;;;;6231489;28;20243;-81
2023/07/18 15:01:59;;;;;;;2.40;2.40;;;25.60;42.40;;;;;;6227650;28;20691;-80
2023/07/18 15:05:03;;;;;;;2.60;2.40;;;25.60;42.80;;;;;;6231684;28;20644;-80
2023/07/18 15:08:06;;;;;;;2.70;2.60;;;25.40;42.90;;;;;;6241170;28;20246;-79
2023/07/18 15:11:10;;;;;;;2.07;1.97;;;25.30;42.20;;;;;;6238273;28;20615;-77
2023/07/18 15:14:14;;;;;;;2.70;2.60;;;25.00;42.90;;;;;;6246490;28;20254;-78
2023/07/18 15:17:17;;;;;;;3.60;2.20;;;25.20;42.80;;;;;;6237598;28;20385;-80
2023/07/18 15:20:20;;;;;;;2.30;2.10;;;25.50;42.90;;;;;;6240292;28;20374;-79
2023/07/18 15:23:23;;;;;;;2.03;1.90;;;25.40;42.70;;;;;;6236939;28;20226;-77
2023/07/18 15:26:28;;;;;;;3.37;2.43;;;25.60;42.70;;;;;;6231909;28;20250;-78
2023/07/18 15:29:31;;;;;;;2.20;2.10;;;25.60;42.00;;;;;;6239429;28;20279;-81
2023/07/18 15:32:35;;;;;;;2.43;2.33;;;25.70;42.40;;;;;;6233804;28;20234;-77
2023/07/18 15:35:38;;;;;;;2.70;2.50;;;25.60;41.80;;;;;;6241501;28;20238;-81
2023/07/18 15:38:41;;;;;;;2.53;2.30;;;25.60;41.70;;;;;;6225131;28;20238;-78
2023/07/18 15:41:49;;;;;;;2.47;2.37;;;25.60;41.60;;;;;;6240077;28;20245;-79
2023/07/18 15:44:52;;;;;;;2.20;2.20;;;25.60;41.70;;;;;;6238132;28;20800;-80
2023/07/18 15:47:56;;;;;;;2.50;2.30;;;25.70;41.90;;;;;;6252051;28;20268;-79
2023/07/18 15:50:59;;;;;;;2.23;2.13;;;25.80;42.10;;;;;;6241662;28;20234;-81
2023/07/18 15:54:04;;;;;;;2.00;2.00;;;25.80;42.30;;;;;;6248482;28;20250;-80
2023/07/18 15:57:09;;;;;;;2.37;2.10;;;25.70;42.20;;;;;;6241298;28;20235;-78
2023/07/18 16:00:13;;;;;;;1.70;1.70;;;25.60;42.10;;;;;;6249704;28;20254;-79